createdAt,value
2018-06-20T00:00:29.067Z,6.03
2018-06-20T00:02:58.271Z,6.00
2018-06-20T00:05:27.586Z,6.33
2018-06-20T00:07:56.825Z,9.23
2018-06-20T00:10:26.026Z,8.20
2018-06-20T00:12:55.277Z,5.27
2018-06-20T00:15:24.491Z,7.47
2018-06-20T00:17:53.682Z,4.50
2018-06-20T00:20:22.875Z,5.97
2018-06-20T00:22:52.053Z,8.77
2018-06-20T00:25:21.326Z,6.67
2018-06-20T00:27:50.505Z,6.30
2018-06-20T00:30:19.722Z,6.87
2018-06-20T00:32:48.914Z,5.47
2018-06-20T00:35:18.132Z,6.67
2018-06-20T00:37:47.315Z,4.70
2018-06-20T00:40:16.527Z,7.50
2018-06-20T00:42:45.805Z,5.40
2018-06-20T00:45:15.015Z,6.83
2018-06-20T00:47:44.215Z,7.40
2018-06-20T00:50:13.514Z,5.50
2018-06-20T00:52:42.695Z,5.37
2018-06-20T00:55:11.905Z,6.37
2018-06-20T00:57:41.126Z,5.90
2018-06-20T01:00:10.331Z,5.67
2018-06-20T01:02:39.527Z,5.30
2018-06-20T01:05:08.748Z,7.97
2018-06-20T01:07:37.959Z,5.63
2018-06-20T01:10:07.813Z,7.10
2018-06-20T01:12:36.995Z,5.17
2018-06-20T01:15:06.280Z,6.13
2018-06-20T01:17:35.499Z,7.20
2018-06-20T01:20:04.687Z,5.67
2018-06-20T01:22:33.876Z,5.30
2018-06-20T01:25:03.081Z,5.30
2018-06-20T01:27:32.293Z,6.67
2018-06-20T01:30:01.483Z,5.50
2018-06-20T01:32:30.732Z,5.60
2018-06-20T01:34:59.927Z,5.87
2018-06-20T01:37:29.123Z,5.40
2018-06-20T01:39:58.328Z,6.08
2018-06-20T01:42:27.571Z,6.20
2018-06-20T01:44:56.781Z,6.00
2018-06-20T01:47:26.127Z,6.57
2018-06-20T01:49:55.340Z,5.20
2018-06-20T01:52:24.303Z,8.93
2018-06-20T01:54:53.491Z,5.40
2018-06-20T01:57:22.686Z,5.63
2018-06-20T01:59:51.915Z,7.60
2018-06-20T02:02:21.122Z,7.00
2018-06-20T02:04:50.310Z,6.10
2018-06-20T02:07:19.526Z,6.07
2018-06-20T02:09:48.739Z,9.40
2018-06-20T02:12:17.954Z,6.28
2018-06-20T02:14:47.194Z,6.93
2018-06-20T02:17:16.383Z,5.70
2018-06-20T02:19:45.611Z,5.97
2018-06-20T02:22:14.835Z,6.13
2018-06-20T02:24:44.028Z,5.70
2018-06-20T02:27:13.243Z,7.13
2018-06-20T02:29:43.086Z,5.77
2018-06-20T02:32:12.318Z,6.50
2018-06-20T02:34:44.365Z,6.03
2018-06-20T02:37:13.609Z,5.13
2018-06-20T02:39:42.896Z,5.10
2018-06-20T02:42:12.097Z,5.17
2018-06-20T02:44:41.402Z,6.77
2018-06-20T02:47:10.598Z,5.77
2018-06-20T02:49:39.791Z,5.00
2018-06-20T02:52:09.071Z,7.00
2018-06-20T02:54:38.269Z,8.30
2018-06-20T02:57:07.473Z,5.80
2018-06-20T02:59:36.690Z,6.80
2018-06-20T03:02:05.891Z,5.93
2018-06-20T03:04:35.076Z,7.37
2018-06-20T03:07:04.306Z,5.17
2018-06-20T03:09:33.502Z,6.80
2018-06-20T03:12:02.710Z,5.23
2018-06-20T03:14:31.939Z,8.33
2018-06-20T03:17:01.157Z,8.43
2018-06-20T03:19:30.913Z,5.57
2018-06-20T03:22:00.186Z,6.80
2018-06-20T03:24:29.403Z,6.97
2018-06-20T03:26:58.603Z,6.93
2018-06-20T03:29:27.788Z,6.70
2018-06-20T03:31:57.027Z,10.67
2018-06-20T03:34:26.302Z,8.63
2018-06-20T03:36:55.687Z,6.97
2018-06-20T03:39:24.894Z,8.08
2018-06-20T03:41:54.162Z,4.80
2018-06-20T03:44:23.474Z,6.27
2018-06-20T03:46:52.677Z,5.53
2018-06-20T03:49:21.900Z,5.15
2018-06-20T03:51:51.134Z,7.17
2018-06-20T03:54:20.338Z,5.77
2018-06-20T03:56:49.749Z,4.90
2018-06-20T03:59:18.945Z,5.20
2018-06-20T04:01:48.190Z,4.93
2018-06-20T04:04:17.391Z,4.87
2018-06-20T04:06:46.967Z,5.47
2018-06-20T04:09:16.151Z,4.93
2018-06-20T04:11:45.345Z,5.10
2018-06-20T04:14:14.555Z,6.23
2018-06-20T04:16:43.778Z,6.10
2018-06-20T04:19:12.978Z,5.60
2018-06-20T04:21:42.217Z,9.83
2018-06-20T04:24:11.406Z,5.47
2018-06-20T04:26:40.596Z,4.40
2018-06-20T04:29:09.849Z,5.17
2018-06-20T04:31:39.034Z,5.07
2018-06-20T04:34:08.441Z,4.57
2018-06-20T04:36:37.643Z,4.40
2018-06-20T04:39:09.559Z,5.67
2018-06-20T04:41:38.755Z,6.23
2018-06-20T04:44:07.986Z,5.40
2018-06-20T04:46:37.200Z,5.00
2018-06-20T04:49:06.461Z,5.27
2018-06-20T04:51:35.658Z,4.70
2018-06-20T04:54:04.854Z,5.87
2018-06-20T04:56:34.112Z,5.27
2018-06-20T04:59:03.586Z,3.80
2018-06-20T05:01:32.849Z,3.83
2018-06-20T05:04:02.043Z,3.67
2018-06-20T05:06:31.269Z,4.70
2018-06-20T05:09:02.115Z,5.23
2018-06-20T05:11:32.027Z,5.70
2018-06-20T05:14:01.271Z,5.63
2018-06-20T05:16:30.447Z,4.63
2018-06-20T05:18:59.643Z,3.93
2018-06-20T05:21:28.855Z,4.62
2018-06-20T05:23:58.072Z,4.17
2018-06-20T05:26:27.255Z,5.37
2018-06-20T05:28:56.434Z,4.30
2018-06-20T05:31:25.631Z,6.73
2018-06-20T05:33:54.822Z,3.92
2018-06-20T05:36:24.005Z,4.42
2018-06-20T05:38:53.262Z,4.03
2018-06-20T05:41:22.495Z,3.80
2018-06-20T05:43:51.994Z,4.55
2018-06-20T05:46:21.203Z,3.67
2018-06-20T05:48:50.531Z,3.35
2018-06-20T05:51:19.853Z,4.83
2018-06-20T05:53:49.099Z,3.70
2018-06-20T05:56:18.395Z,3.15
2018-06-20T05:58:47.612Z,4.15
2018-06-20T06:01:17.003Z,3.97
2018-06-20T06:03:46.558Z,3.40
2018-06-20T06:06:16.743Z,4.17
2018-06-20T06:08:47.193Z,3.33
2018-06-20T06:11:16.389Z,6.00
2018-06-20T06:13:45.587Z,6.67
2018-06-20T06:16:14.774Z,4.33
2018-06-20T06:18:43.999Z,6.22
2018-06-20T06:21:13.175Z,6.42
2018-06-20T06:23:42.393Z,5.05
2018-06-20T06:26:11.597Z,4.57
2018-06-20T06:28:40.808Z,4.20
2018-06-20T06:31:10.025Z,4.10
2018-06-20T06:33:39.279Z,4.60
2018-06-20T06:36:08.522Z,4.78
2018-06-20T06:38:37.697Z,4.90
2018-06-20T06:41:06.878Z,5.53
2018-06-20T06:43:36.080Z,4.77
2018-06-20T06:46:05.155Z,6.33
2018-06-20T06:48:34.360Z,5.00
2018-06-20T06:51:03.571Z,3.77
2018-06-20T06:53:32.774Z,4.67
2018-06-20T06:56:02.054Z,4.62
2018-06-20T06:58:32.219Z,3.27
2018-06-20T07:01:01.412Z,3.27
2018-06-20T07:03:30.729Z,3.97
2018-06-20T07:05:59.930Z,5.50
2018-06-20T07:08:29.112Z,4.72
2018-06-20T07:10:58.311Z,3.10
2018-06-20T07:13:27.719Z,5.37
2018-06-20T07:15:56.908Z,5.03
2018-06-20T07:18:26.123Z,5.35
2018-06-20T07:20:55.386Z,3.52
2018-06-20T07:23:24.767Z,3.50
2018-06-20T07:25:53.975Z,3.10
2018-06-20T07:28:23.201Z,3.07
2018-06-20T07:30:52.409Z,3.53
2018-06-20T07:33:21.633Z,3.87
2018-06-20T07:35:50.973Z,5.57
2018-06-20T07:38:20.119Z,2.30
2018-06-20T07:40:49.403Z,2.72
2018-06-20T07:43:18.616Z,3.75
2018-06-20T07:45:47.808Z,2.67
2018-06-20T07:48:17.035Z,4.37
2018-06-20T07:50:46.252Z,4.13
2018-06-20T07:53:15.451Z,2.62
2018-06-20T07:55:44.635Z,4.20
2018-06-20T07:59:17.882Z,2.40
2018-06-20T08:02:09.866Z,4.10
2018-06-20T08:04:44.578Z,2.72
2018-06-20T08:07:18.927Z,2.67
2018-06-20T08:09:53.283Z,2.70
2018-06-20T08:12:27.716Z,2.45
2018-06-20T08:15:02.040Z,7.22
2018-06-20T08:17:36.366Z,4.22
2018-06-20T08:20:09.667Z,2.50
2018-06-20T08:22:38.914Z,3.80
2018-06-20T08:25:08.127Z,2.93
2018-06-20T08:27:37.339Z,2.00
2018-06-20T08:30:07.971Z,2.92
2018-06-20T08:32:37.185Z,2.20
2018-06-20T08:35:06.371Z,3.37
2018-06-20T08:37:35.703Z,2.62
2018-06-20T08:40:05.246Z,2.83
2018-06-20T08:42:34.525Z,2.10
2018-06-20T08:45:03.692Z,2.08
2018-06-20T08:47:32.886Z,1.75
2018-06-20T08:50:02.114Z,2.67
2018-06-20T08:52:31.391Z,2.37
2018-06-20T08:55:00.583Z,2.08
2018-06-20T08:57:29.852Z,2.20
2018-06-20T08:59:59.059Z,2.40
2018-06-20T09:02:28.064Z,4.13
2018-06-20T09:05:02.654Z,2.22
2018-06-20T09:07:37.187Z,1.67
2018-06-20T09:10:11.507Z,2.03
2018-06-20T09:12:45.927Z,1.98
2018-06-20T09:15:20.287Z,1.72
2018-06-20T09:17:54.593Z,1.90
2018-06-20T09:20:24.808Z,2.98
2018-06-20T09:22:53.970Z,1.65
2018-06-20T09:25:23.210Z,4.00
2018-06-20T09:27:52.420Z,4.03
2018-06-20T09:30:21.627Z,3.25
2018-06-20T09:32:50.833Z,2.12
2018-06-20T09:35:20.027Z,3.17
2018-06-20T09:37:49.222Z,3.27
2018-06-20T09:40:18.466Z,3.53
2018-06-20T09:42:47.673Z,1.45
2018-06-20T09:45:16.902Z,2.52
2018-06-20T09:47:46.084Z,2.17
2018-06-20T09:50:20.547Z,1.90
2018-06-20T09:52:49.774Z,2.13
2018-06-20T09:55:18.966Z,2.97
2018-06-20T09:57:49.134Z,2.86
2018-06-20T10:00:23.605Z,2.55
2018-06-20T10:02:58.082Z,2.67
2018-06-20T10:05:32.487Z,2.62
2018-06-20T10:08:06.924Z,2.83
2018-06-20T10:10:41.306Z,1.70
2018-06-20T10:13:12.512Z,2.42
2018-06-20T10:15:41.688Z,2.60
2018-06-20T10:18:10.987Z,3.13
2018-06-20T10:20:40.190Z,2.00
2018-06-20T10:23:09.392Z,4.15
2018-06-20T10:25:38.587Z,1.80
2018-06-20T10:28:07.774Z,2.70
2018-06-20T10:30:37.069Z,4.63
2018-06-20T10:33:06.307Z,1.77
2018-06-20T10:35:35.599Z,2.80
2018-06-20T10:38:04.811Z,2.83
2018-06-20T10:40:34.092Z,2.57
2018-06-20T10:43:03.506Z,4.50
2018-06-20T10:45:38.829Z,2.44
2018-06-20T10:48:14.774Z,3.50
2018-06-20T10:50:44.787Z,3.34
2018-06-20T10:53:14.010Z,2.15
2018-06-20T10:55:43.220Z,3.00
2018-06-20T10:58:17.675Z,4.13
2018-06-20T11:00:52.012Z,1.87
2018-06-20T11:03:26.364Z,1.80
2018-06-20T11:06:00.706Z,2.23
2018-06-20T11:08:35.005Z,2.47
2018-06-20T11:11:09.338Z,4.90
2018-06-20T11:13:38.541Z,2.05
2018-06-20T11:16:07.786Z,2.43
2018-06-20T11:18:39.973Z,5.90
2018-06-20T11:21:09.178Z,2.30
2018-06-20T11:23:38.377Z,2.70
2018-06-20T11:26:07.619Z,2.27
2018-06-20T11:28:36.902Z,3.33
2018-06-20T11:31:06.152Z,1.90
2018-06-20T11:33:35.427Z,2.13
2018-06-20T11:36:04.676Z,2.25
2018-06-20T11:38:33.863Z,1.98
2018-06-20T11:41:03.051Z,2.70
2018-06-20T11:43:32.255Z,2.57
2018-06-20T11:46:06.815Z,4.05
2018-06-20T11:48:36.055Z,2.47
2018-06-20T11:51:06.359Z,5.20
2018-06-20T11:53:35.559Z,2.02
2018-06-20T11:56:04.754Z,3.63
2018-06-20T11:58:39.079Z,3.20
2018-06-20T12:01:13.530Z,3.70
2018-06-20T12:03:47.888Z,2.10
2018-06-20T12:06:22.266Z,2.43
2018-06-20T12:08:56.675Z,2.42
2018-06-20T12:11:31.107Z,2.40
2018-06-20T12:14:05.450Z,2.83
2018-06-20T12:16:36.356Z,7.12
2018-06-20T12:19:10.672Z,2.35
2018-06-20T12:21:45.021Z,3.12
2018-06-20T12:24:19.360Z,1.95
2018-06-20T12:26:53.729Z,3.05
2018-06-20T12:29:28.028Z,1.75
2018-06-20T12:32:02.355Z,1.90
2018-06-20T12:34:36.725Z,2.35
2018-06-20T12:37:11.170Z,2.87
2018-06-20T12:39:39.494Z,2.90
2018-06-20T12:42:13.823Z,2.90
2018-06-20T12:45:18.634Z,3.50
2018-06-20T12:47:50.361Z,1.87
2018-06-20T12:50:22.334Z,2.33
2018-06-20T12:52:51.539Z,1.98
2018-06-20T12:55:20.739Z,3.40
2018-06-20T12:57:50.074Z,2.17
2018-06-20T13:00:19.255Z,2.03
2018-06-20T13:02:48.475Z,1.77
2018-06-20T13:05:17.883Z,2.20
2018-06-20T13:07:47.070Z,2.15
2018-06-20T13:10:16.260Z,3.15
2018-06-20T13:12:45.495Z,2.23
2018-06-20T13:15:14.676Z,3.37
2018-06-20T13:17:43.864Z,3.72
2018-06-20T13:20:13.126Z,2.50
2018-06-20T13:22:42.265Z,2.87
2018-06-20T13:25:11.458Z,2.43
2018-06-20T13:27:46.532Z,2.17
2018-06-20T13:30:16.323Z,2.72
2018-06-20T13:34:54.791Z,3.42
2018-06-20T13:37:29.133Z,2.58
2018-06-20T13:40:03.555Z,1.75
2018-06-20T13:42:37.920Z,3.42
2018-06-20T13:46:16.331Z,4.04
2018-06-20T13:48:45.712Z,2.52
2018-06-20T13:51:14.903Z,2.35
2018-06-20T13:53:44.152Z,1.95
2018-06-20T13:56:13.359Z,1.77
2018-06-20T13:58:42.542Z,2.63
2018-06-20T14:01:11.974Z,3.00
2018-06-20T14:03:41.203Z,1.95
2018-06-20T14:06:10.454Z,3.10
2018-06-20T14:08:39.675Z,3.00
2018-06-20T14:11:08.854Z,4.90
2018-06-20T14:13:38.243Z,1.70
2018-06-20T14:16:07.471Z,2.37
2018-06-20T14:18:36.700Z,1.70
2018-06-20T14:21:11.242Z,2.63
2018-06-20T14:23:40.426Z,2.07
2018-06-20T14:26:09.710Z,2.02
2018-06-20T14:28:38.888Z,2.98
2018-06-20T14:31:13.398Z,1.90
2018-06-20T14:33:47.742Z,2.77
2018-06-20T14:36:22.225Z,2.00
2018-06-20T14:38:56.640Z,4.70
2018-06-20T14:41:26.108Z,1.80
2018-06-20T14:44:00.565Z,3.20
2018-06-20T14:46:31.478Z,1.72
2018-06-20T14:49:01.078Z,2.18
2018-06-20T14:51:30.362Z,2.60
2018-06-20T14:53:59.571Z,2.10
2018-06-20T14:56:28.745Z,2.47
2018-06-20T14:58:57.962Z,1.65
2018-06-20T15:01:27.170Z,3.22
2018-06-20T15:03:56.405Z,2.45
2018-06-20T15:06:25.852Z,2.27
2018-06-20T15:08:55.068Z,3.10
2018-06-20T15:11:24.385Z,1.95
2018-06-20T15:13:53.599Z,1.80
2018-06-20T15:16:28.173Z,3.37
2018-06-20T15:18:57.442Z,2.90
2018-06-20T15:21:26.646Z,2.05
2018-06-20T15:23:55.956Z,3.27
2018-06-20T15:26:30.391Z,4.40
2018-06-20T15:29:04.710Z,1.60
2018-06-20T15:31:39.013Z,1.60
2018-06-20T15:34:13.397Z,3.90
2018-06-20T15:36:47.699Z,2.95
2018-06-20T15:39:16.886Z,1.70
2018-06-20T15:41:46.120Z,1.63
2018-06-20T15:44:15.324Z,1.70
2018-06-20T15:46:44.537Z,2.22
2018-06-20T15:49:13.769Z,1.85
2018-06-20T15:51:43.030Z,2.10
2018-06-20T15:54:12.237Z,4.50
2018-06-20T15:56:41.475Z,3.70
2018-06-20T15:59:10.653Z,2.27
2018-06-20T16:01:39.871Z,2.95
2018-06-20T16:04:09.262Z,6.65
2018-06-20T16:06:38.438Z,3.73
2018-06-20T16:09:13.627Z,2.30
2018-06-20T16:11:42.818Z,2.43
2018-06-20T16:14:12.222Z,2.83
2018-06-20T16:16:41.398Z,2.37
2018-06-20T16:19:15.861Z,2.57
2018-06-20T16:21:50.374Z,4.58
2018-06-20T16:24:24.775Z,2.87
2018-06-20T16:26:59.061Z,2.67
2018-06-20T16:29:33.377Z,2.53
2018-06-20T16:32:02.611Z,5.13
2018-06-20T16:34:31.795Z,2.90
2018-06-20T16:37:00.978Z,3.30
2018-06-20T16:39:30.173Z,2.95
2018-06-20T16:41:59.223Z,3.47
2018-06-20T16:44:28.591Z,2.63
2018-06-20T16:46:57.839Z,3.10
2018-06-20T16:49:27.049Z,5.78
2018-06-20T16:51:56.253Z,3.15
2018-06-20T16:54:25.648Z,7.08
2018-06-20T16:56:54.851Z,6.70
2018-06-20T16:59:24.082Z,2.95
2018-06-20T17:01:58.542Z,4.35
2018-06-20T17:04:27.764Z,2.77
2018-06-20T17:06:57.015Z,4.13
2018-06-20T17:09:26.366Z,4.97
2018-06-20T17:12:00.726Z,2.85
2018-06-20T17:14:35.080Z,5.10
2018-06-20T17:17:09.426Z,3.30
2018-06-20T17:19:44.356Z,3.90
2018-06-20T17:51:43.671Z,2.90
2018-06-20T17:54:12.854Z,7.78
2018-06-20T17:56:42.086Z,4.07
2018-06-20T17:59:11.314Z,5.10
2018-06-20T18:01:40.530Z,3.08
2018-06-20T18:04:09.722Z,8.18
2018-06-20T18:06:44.302Z,2.72
2018-06-20T18:09:18.662Z,4.95
2018-06-20T18:11:53.210Z,5.60
2018-06-20T18:14:27.555Z,5.87
2018-06-20T18:16:57.486Z,2.70
2018-06-20T18:19:26.901Z,3.87
2018-06-20T18:21:56.138Z,3.42
2018-06-20T18:24:25.819Z,6.17
2018-06-20T18:26:55.434Z,4.78
2018-06-20T18:29:39.524Z,3.45
2018-06-20T18:32:08.879Z,7.13
2018-06-20T18:34:38.266Z,3.50
2018-06-20T18:37:07.455Z,5.93
2018-06-20T18:39:41.853Z,4.62
2018-06-20T18:42:10.990Z,5.62
2018-06-20T18:44:40.184Z,2.85
2018-06-20T18:47:09.404Z,3.02
2018-06-20T18:49:38.597Z,3.30
2018-06-20T18:52:07.790Z,4.00
2018-06-20T18:54:36.980Z,2.60
2018-06-20T18:57:09.533Z,2.55
2018-06-20T18:59:43.919Z,4.87
2018-06-20T19:02:18.178Z,4.92
2018-06-20T19:04:52.635Z,6.42
2018-06-20T19:07:27.074Z,3.27
2018-06-20T19:09:56.292Z,3.47
2018-06-20T19:12:25.498Z,3.83
2018-06-20T19:14:54.732Z,6.50
2018-06-20T19:17:23.886Z,6.12
2018-06-20T19:19:53.150Z,5.03
2018-06-20T19:22:22.294Z,5.55
2018-06-20T19:24:51.482Z,5.37
2018-06-20T19:27:20.731Z,6.00
2018-06-20T19:29:49.938Z,5.80
2018-06-20T19:32:19.130Z,5.42
2018-06-20T19:34:48.395Z,4.72
2018-06-20T19:37:17.583Z,4.67
2018-06-20T19:39:50.775Z,3.60
2018-06-20T19:42:21.830Z,5.37
2018-06-20T19:44:51.725Z,6.28
2018-06-20T19:47:20.833Z,6.35
2018-06-20T19:49:50.022Z,6.50
2018-06-20T19:52:19.230Z,6.92
2018-06-20T19:54:48.435Z,4.45
2018-06-20T19:57:17.634Z,4.25
2018-06-20T19:59:46.879Z,4.50
2018-06-20T20:02:16.115Z,4.00
2018-06-20T20:04:45.299Z,6.13
2018-06-20T20:07:14.517Z,7.40
2018-06-20T20:09:43.853Z,4.75
2018-06-20T20:12:13.045Z,4.60
2018-06-20T20:14:42.279Z,4.37
2018-06-20T20:17:11.467Z,4.30
2018-06-20T20:19:41.670Z,5.40
2018-06-20T20:22:10.871Z,5.05
2018-06-20T20:24:40.062Z,5.60
2018-06-20T20:27:09.294Z,5.00
2018-06-20T20:29:38.510Z,6.75
2018-06-20T20:32:07.714Z,5.75
2018-06-20T20:34:36.975Z,5.25
2018-06-20T20:37:06.242Z,6.72
2018-06-20T20:39:35.473Z,7.63
2018-06-20T20:42:04.703Z,7.25
2018-06-20T20:44:33.923Z,5.17
2018-06-20T20:47:03.343Z,6.97
2018-06-20T20:49:32.637Z,5.47
2018-06-20T20:52:01.823Z,4.90
2018-06-20T20:54:31.038Z,6.55
2018-06-20T20:57:00.298Z,5.50
2018-06-20T20:59:29.671Z,5.73
2018-06-20T21:01:58.888Z,6.50
2018-06-20T21:04:28.098Z,6.98
2018-06-20T21:06:57.299Z,6.35
2018-06-20T21:09:26.518Z,5.73
2018-06-20T21:11:55.708Z,4.93
2018-06-20T21:14:24.964Z,5.20
2018-06-20T21:16:54.172Z,5.53
2018-06-20T21:19:23.370Z,7.53
2018-06-20T21:21:52.636Z,7.25
2018-06-20T21:24:21.847Z,5.53
2018-06-20T21:26:51.047Z,5.93
2018-06-20T21:29:20.549Z,6.47
2018-06-20T21:31:49.771Z,5.27
2018-06-20T21:34:18.975Z,5.63
2018-06-20T21:36:48.216Z,6.30
2018-06-20T21:39:17.416Z,5.33
2018-06-20T21:41:46.627Z,5.97
2018-06-20T21:44:15.822Z,6.57
2018-06-20T21:46:45.048Z,8.77
2018-06-20T21:49:14.218Z,8.30
2018-06-20T21:51:43.521Z,6.10
2018-06-20T21:54:12.759Z,9.10
2018-06-20T21:56:41.955Z,6.60
2018-06-20T21:59:11.182Z,5.40
2018-06-20T22:01:40.396Z,5.70
2018-06-20T22:04:10.034Z,6.12
2018-06-20T22:06:39.242Z,5.93
2018-06-20T22:09:09.857Z,7.93
2018-06-20T22:11:39.158Z,6.70
2018-06-20T22:14:09.398Z,7.47
2018-06-20T22:16:39.066Z,7.83
2018-06-20T22:19:08.271Z,6.10
2018-06-20T22:21:37.470Z,5.90
2018-06-20T22:24:07.005Z,6.05
2018-06-20T22:26:35.961Z,8.40
2018-06-20T22:29:05.885Z,7.43
2018-06-20T22:31:35.110Z,6.17
2018-06-20T22:34:04.378Z,6.17
2018-06-20T22:36:33.708Z,7.78
2018-06-20T22:39:02.982Z,10.33
2018-06-20T22:41:32.211Z,6.20
2018-06-20T22:44:01.410Z,7.40
2018-06-20T22:46:30.598Z,10.63
2018-06-20T22:48:59.803Z,7.20
2018-06-20T22:51:29.454Z,6.60
2018-06-20T22:53:58.669Z,6.47
2018-06-20T22:56:27.895Z,6.83
2018-06-20T22:58:57.127Z,6.47
2018-06-20T23:01:26.330Z,8.73
2018-06-20T23:03:58.725Z,8.27
2018-06-20T23:06:27.939Z,9.37
2018-06-20T23:08:57.166Z,7.13
2018-06-20T23:11:26.380Z,7.27
2018-06-20T23:13:55.667Z,7.27
2018-06-20T23:16:24.875Z,6.80
2018-06-20T23:18:54.611Z,6.50
2018-06-20T23:21:23.890Z,9.20
2018-06-20T23:23:53.123Z,6.83
2018-06-20T23:26:22.339Z,6.40
2018-06-20T23:28:51.522Z,7.43
2018-06-20T23:31:20.824Z,8.23
2018-06-20T23:33:50.040Z,6.47
2018-06-20T23:36:19.267Z,7.57
2018-06-20T23:38:48.246Z,6.63
2018-06-20T23:41:17.438Z,6.60
2018-06-20T23:43:46.650Z,7.47
2018-06-20T23:46:15.927Z,8.10
2018-06-20T23:48:45.127Z,7.73
2018-06-20T23:51:14.427Z,7.57
2018-06-20T23:53:43.628Z,7.57
2018-06-20T23:56:12.845Z,8.33
2018-06-20T23:58:42.038Z,8.20
